sensor_id;sensor_type;location;lat;lon;timestamp;P1;durP1;ratioP1;P2;durP2;ratioP2
29788;SDS011;64899;42.660;23.268;2023-11-19T00:02:18;4.05;;;3.05;;
29788;SDS011;64899;42.660;23.268;2023-11-19T00:04:44;4.20;;;3.67;;
29788;SDS011;64899;42.660;23.268;2023-11-19T00:07:09;4.13;;;2.97;;
29788;SDS011;64899;42.660;23.268;2023-11-19T00:09:37;4.60;;;3.20;;
29788;SDS011;64899;42.660;23.268;2023-11-19T00:12:06;4.22;;;3.08;;
29788;SDS011;64899;42.660;23.268;2023-11-19T00:14:31;3.58;;;3.05;;
29788;SDS011;64899;42.660;23.268;2023-11-19T00:16:57;4.45;;;3.30;;
29788;SDS011;64899;42.660;23.268;2023-11-19T00:19:22;3.72;;;3.00;;
29788;SDS011;64899;42.660;23.268;2023-11-19T00:21:48;3.30;;;3.00;;
29788;SDS011;64899;42.660;23.268;2023-11-19T00:24:13;3.88;;;3.17;;
29788;SDS011;64899;42.660;23.268;2023-11-19T00:26:41;5.78;;;3.30;;
29788;SDS011;64899;42.660;23.268;2023-11-19T00:29:07;3.67;;;3.30;;
29788;SDS011;64899;42.660;23.268;2023-11-19T00:31:33;4.38;;;3.10;;
29788;SDS011;64899;42.660;23.268;2023-11-19T00:33:58;4.65;;;3.10;;
29788;SDS011;64899;42.660;23.268;2023-11-19T00:36:23;4.50;;;3.28;;
29788;SDS011;64899;42.660;23.268;2023-11-19T00:38:49;3.85;;;3.30;;
29788;SDS011;64899;42.660;23.268;2023-11-19T00:41:15;5.32;;;4.00;;
29788;SDS011;64899;42.660;23.268;2023-11-19T00:43:41;3.83;;;3.42;;
29788;SDS011;64899;42.660;23.268;2023-11-19T00:46:07;5.88;;;4.13;;
29788;SDS011;64899;42.660;23.268;2023-11-19T00:48:32;4.75;;;3.28;;
29788;SDS011;64899;42.660;23.268;2023-11-19T00:50:58;3.65;;;3.30;;
29788;SDS011;64899;42.660;23.268;2023-11-19T00:53:24;3.40;;;3.10;;
29788;SDS011;64899;42.660;23.268;2023-11-19T00:55:49;4.55;;;3.45;;
29788;SDS011;64899;42.660;23.268;2023-11-19T00:58:14;4.78;;;3.25;;
29788;SDS011;64899;42.660;23.268;2023-11-19T01:00:40;3.65;;;3.33;;
29788;SDS011;64899;42.660;23.268;2023-11-19T01:03:05;3.75;;;3.22;;
29788;SDS011;64899;42.660;23.268;2023-11-19T01:05:32;4.45;;;3.80;;
29788;SDS011;64899;42.660;23.268;2023-11-19T01:07:58;3.92;;;3.30;;
29788;SDS011;64899;42.660;23.268;2023-11-19T01:10:23;4.28;;;3.20;;
29788;SDS011;64899;42.660;23.268;2023-11-19T01:12:49;4.05;;;3.00;;
29788;SDS011;64899;42.660;23.268;2023-11-19T01:15:14;4.68;;;3.38;;
29788;SDS011;64899;42.660;23.268;2023-11-19T01:17:40;3.30;;;2.80;;
29788;SDS011;64899;42.660;23.268;2023-11-19T01:20:05;4.43;;;3.75;;
29788;SDS011;64899;42.660;23.268;2023-11-19T01:22:31;4.32;;;3.20;;
29788;SDS011;64899;42.660;23.268;2023-11-19T01:24:57;4.22;;;2.92;;
29788;SDS011;64899;42.660;23.268;2023-11-19T01:27:23;3.22;;;2.92;;
29788;SDS011;64899;42.660;23.268;2023-11-19T01:29:49;4.47;;;3.35;;
29788;SDS011;64899;42.660;23.268;2023-11-19T01:32:15;3.47;;;2.70;;
29788;SDS011;64899;42.660;23.268;2023-11-19T01:34:40;4.43;;;3.40;;
29788;SDS011;64899;42.660;23.268;2023-11-19T01:37:06;3.92;;;3.10;;
29788;SDS011;64899;42.660;23.268;2023-11-19T01:39:31;3.03;;;2.75;;
29788;SDS011;64899;42.660;23.268;2023-11-19T01:41:57;4.45;;;3.17;;
29788;SDS011;64899;42.660;23.268;2023-11-19T01:44:22;3.60;;;2.92;;
29788;SDS011;64899;42.660;23.268;2023-11-19T01:46:48;3.60;;;2.90;;
29788;SDS011;64899;42.660;23.268;2023-11-19T01:49:17;3.05;;;2.75;;
29788;SDS011;64899;42.660;23.268;2023-11-19T01:51:44;4.47;;;2.92;;
29788;SDS011;64899;42.660;23.268;2023-11-19T01:54:10;4.28;;;3.13;;
29788;SDS011;64899;42.660;23.268;2023-11-19T01:56:36;3.25;;;2.75;;
29788;SDS011;64899;42.660;23.268;2023-11-19T01:59:05;4.45;;;2.97;;
29788;SDS011;64899;42.660;23.268;2023-11-19T02:01:31;4.57;;;2.45;;
29788;SDS011;64899;42.660;23.268;2023-11-19T02:03:59;5.13;;;3.00;;
29788;SDS011;64899;42.660;23.268;2023-11-19T02:06:25;2.80;;;2.60;;
29788;SDS011;64899;42.660;23.268;2023-11-19T02:08:51;3.30;;;3.00;;
29788;SDS011;64899;42.660;23.268;2023-11-19T02:11:17;3.25;;;2.95;;
29788;SDS011;64899;42.660;23.268;2023-11-19T02:13:42;3.47;;;3.05;;
29788;SDS011;64899;42.660;23.268;2023-11-19T02:16:09;3.13;;;2.80;;
29788;SDS011;64899;42.660;23.268;2023-11-19T02:18:36;2.70;;;2.45;;
29788;SDS011;64899;42.660;23.268;2023-11-19T02:21:01;3.88;;;3.10;;
29788;SDS011;64899;42.660;23.268;2023-11-19T02:23:27;3.83;;;2.42;;
29788;SDS011;64899;42.660;23.268;2023-11-19T02:26:03;3.67;;;3.00;;
29788;SDS011;64899;42.660;23.268;2023-11-19T02:28:35;4.13;;;3.20;;
29788;SDS011;64899;42.660;23.268;2023-11-19T02:31:01;3.17;;;2.80;;
29788;SDS011;64899;42.660;23.268;2023-11-19T02:33:26;6.43;;;2.97;;
29788;SDS011;64899;42.660;23.268;2023-11-19T02:35:52;3.35;;;2.85;;
29788;SDS011;64899;42.660;23.268;2023-11-19T02:38:17;3.50;;;2.70;;
29788;SDS011;64899;42.660;23.268;2023-11-19T02:40:42;3.67;;;3.00;;
29788;SDS011;64899;42.660;23.268;2023-11-19T02:43:08;4.68;;;3.13;;
29788;SDS011;64899;42.660;23.268;2023-11-19T02:45:33;5.75;;;3.10;;
29788;SDS011;64899;42.660;23.268;2023-11-19T02:47:59;4.07;;;3.35;;
29788;SDS011;64899;42.660;23.268;2023-11-19T02:50:26;3.47;;;2.92;;
29788;SDS011;64899;42.660;23.268;2023-11-19T02:52:53;3.70;;;3.00;;
29788;SDS011;64899;42.660;23.268;2023-11-19T02:55:21;3.15;;;2.85;;
29788;SDS011;64899;42.660;23.268;2023-11-19T02:57:48;4.20;;;3.28;;
29788;SDS011;64899;42.660;23.268;2023-11-19T03:00:21;3.10;;;2.78;;
29788;SDS011;64899;42.660;23.268;2023-11-19T03:02:57;3.15;;;2.53;;
29788;SDS011;64899;42.660;23.268;2023-11-19T03:05:34;4.55;;;3.40;;
29788;SDS011;64899;42.660;23.268;2023-11-19T03:08:00;3.83;;;2.88;;
29788;SDS011;64899;42.660;23.268;2023-11-19T03:10:25;3.35;;;2.97;;
29788;SDS011;64899;42.660;23.268;2023-11-19T03:12:50;6.45;;;3.33;;
29788;SDS011;64899;42.660;23.268;2023-11-19T03:15:16;4.38;;;3.15;;
29788;SDS011;64899;42.660;23.268;2023-11-19T03:17:41;3.70;;;3.05;;
29788;SDS011;64899;42.660;23.268;2023-11-19T03:20:08;3.53;;;3.22;;
29788;SDS011;64899;42.660;23.268;2023-11-19T03:22:39;4.13;;;3.10;;
29788;SDS011;64899;42.660;23.268;2023-11-19T03:25:06;3.13;;;2.78;;
29788;SDS011;64899;42.660;23.268;2023-11-19T03:27:33;4.40;;;3.33;;
29788;SDS011;64899;42.660;23.268;2023-11-19T03:30:00;2.60;;;2.40;;
29788;SDS011;64899;42.660;23.268;2023-11-19T03:32:26;3.63;;;3.20;;
29788;SDS011;64899;42.660;23.268;2023-11-19T03:34:52;4.85;;;2.80;;
29788;SDS011;64899;42.660;23.268;2023-11-19T03:37:17;3.42;;;3.05;;
29788;SDS011;64899;42.660;23.268;2023-11-19T03:39:43;3.38;;;2.78;;
29788;SDS011;64899;42.660;23.268;2023-11-19T03:42:08;3.63;;;2.83;;
29788;SDS011;64899;42.660;23.268;2023-11-19T03:44:34;3.63;;;2.88;;
29788;SDS011;64899;42.660;23.268;2023-11-19T03:46:59;4.30;;;3.00;;
29788;SDS011;64899;42.660;23.268;2023-11-19T03:49:24;3.63;;;2.90;;
29788;SDS011;64899;42.660;23.268;2023-11-19T03:51:50;5.22;;;3.20;;
29788;SDS011;64899;42.660;23.268;2023-11-19T03:54:15;4.32;;;3.55;;
29788;SDS011;64899;42.660;23.268;2023-11-19T03:56:40;4.72;;;3.38;;
29788;SDS011;64899;42.660;23.268;2023-11-19T03:59:06;3.95;;;2.95;;
29788;SDS011;64899;42.660;23.268;2023-11-19T04:01:32;3.33;;;2.95;;
29788;SDS011;64899;42.660;23.268;2023-11-19T04:03:57;3.42;;;3.13;;
29788;SDS011;64899;42.660;23.268;2023-11-19T04:06:22;4.50;;;3.33;;
29788;SDS011;64899;42.660;23.268;2023-11-19T04:08:48;5.10;;;3.35;;
29788;SDS011;64899;42.660;23.268;2023-11-19T04:11:14;3.22;;;2.92;;
29788;SDS011;64899;42.660;23.268;2023-11-19T04:13:39;4.00;;;3.10;;
29788;SDS011;64899;42.660;23.268;2023-11-19T04:16:05;4.72;;;3.50;;
29788;SDS011;64899;42.660;23.268;2023-11-19T04:18:31;3.15;;;2.85;;
29788;SDS011;64899;42.660;23.268;2023-11-19T04:20:57;4.50;;;3.58;;
29788;SDS011;64899;42.660;23.268;2023-11-19T04:23:22;3.45;;;2.80;;
29788;SDS011;64899;42.660;23.268;2023-11-19T04:25:49;3.45;;;2.85;;
29788;SDS011;64899;42.660;23.268;2023-11-19T04:28:15;3.78;;;2.92;;
29788;SDS011;64899;42.660;23.268;2023-11-19T04:30:40;4.22;;;2.80;;
29788;SDS011;64899;42.660;23.268;2023-11-19T04:33:05;3.05;;;2.78;;
29788;SDS011;64899;42.660;23.268;2023-11-19T04:35:31;3.97;;;3.38;;
29788;SDS011;64899;42.660;23.268;2023-11-19T04:37:56;4.07;;;2.95;;
29788;SDS011;64899;42.660;23.268;2023-11-19T04:40:22;3.45;;;3.05;;
29788;SDS011;64899;42.660;23.268;2023-11-19T04:42:48;4.32;;;3.60;;
29788;SDS011;64899;42.660;23.268;2023-11-19T04:45:14;5.40;;;2.97;;
29788;SDS011;64899;42.660;23.268;2023-11-19T04:47:41;4.30;;;3.38;;
29788;SDS011;64899;42.660;23.268;2023-11-19T04:50:07;4.72;;;3.22;;
29788;SDS011;64899;42.660;23.268;2023-11-19T04:52:37;6.55;;;3.40;;
29788;SDS011;64899;42.660;23.268;2023-11-19T04:55:03;6.15;;;3.47;;
29788;SDS011;64899;42.660;23.268;2023-11-19T04:57:29;3.33;;;2.85;;
29788;SDS011;64899;42.660;23.268;2023-11-19T04:59:54;4.82;;;3.45;;
29788;SDS011;64899;42.660;23.268;2023-11-19T05:02:20;4.95;;;3.05;;
29788;SDS011;64899;42.660;23.268;2023-11-19T05:04:45;4.35;;;3.30;;
29788;SDS011;64899;42.660;23.268;2023-11-19T05:07:11;4.88;;;3.00;;
29788;SDS011;64899;42.660;23.268;2023-11-19T05:09:37;3.08;;;2.83;;
29788;SDS011;64899;42.660;23.268;2023-11-19T05:12:02;2.90;;;2.65;;
29788;SDS011;64899;42.660;23.268;2023-11-19T05:14:28;5.22;;;2.83;;
29788;SDS011;64899;42.660;23.268;2023-11-19T05:16:53;4.25;;;3.20;;
29788;SDS011;64899;42.660;23.268;2023-11-19T05:19:19;5.75;;;2.72;;
29788;SDS011;64899;42.660;23.268;2023-11-19T05:21:44;3.97;;;2.75;;
29788;SDS011;64899;42.660;23.268;2023-11-19T05:24:09;3.75;;;2.92;;
29788;SDS011;64899;42.660;23.268;2023-11-19T05:26:36;3.78;;;3.15;;
29788;SDS011;64899;42.660;23.268;2023-11-19T05:29:02;4.43;;;3.30;;
29788;SDS011;64899;42.660;23.268;2023-11-19T05:31:27;4.20;;;2.90;;
29788;SDS011;64899;42.660;23.268;2023-11-19T05:33:53;3.55;;;3.25;;
29788;SDS011;64899;42.660;23.268;2023-11-19T05:36:18;3.28;;;2.97;;
29788;SDS011;64899;42.660;23.268;2023-11-19T05:38:43;3.58;;;3.10;;
29788;SDS011;64899;42.660;23.268;2023-11-19T05:41:09;3.03;;;2.72;;
29788;SDS011;64899;42.660;23.268;2023-11-19T05:43:35;3.97;;;3.15;;
29788;SDS011;64899;42.660;23.268;2023-11-19T05:46:00;3.95;;;3.22;;
29788;SDS011;64899;42.660;23.268;2023-11-19T05:48:26;4.20;;;3.20;;
29788;SDS011;64899;42.660;23.268;2023-11-19T05:50:52;4.05;;;3.33;;
29788;SDS011;64899;42.660;23.268;2023-11-19T05:53:18;3.60;;;3.03;;
29788;SDS011;64899;42.660;23.268;2023-11-19T05:55:44;4.78;;;3.53;;
29788;SDS011;64899;42.660;23.268;2023-11-19T05:58:25;4.20;;;3.30;;
29788;SDS011;64899;42.660;23.268;2023-11-19T06:00:51;4.88;;;3.33;;
29788;SDS011;64899;42.660;23.268;2023-11-19T06:03:17;7.15;;;3.88;;
29788;SDS011;64899;42.660;23.268;2023-11-19T06:05:46;4.22;;;3.65;;
29788;SDS011;64899;42.660;23.268;2023-11-19T06:08:11;4.60;;;3.70;;
29788;SDS011;64899;42.660;23.268;2023-11-19T06:10:38;4.55;;;3.10;;
29788;SDS011;64899;42.660;23.268;2023-11-19T06:13:04;5.00;;;3.50;;
29788;SDS011;64899;42.660;23.268;2023-11-19T06:15:30;4.72;;;3.60;;
29788;SDS011;64899;42.660;23.268;2023-11-19T06:17:56;4.85;;;3.10;;
29788;SDS011;64899;42.660;23.268;2023-11-19T06:20:24;4.15;;;3.50;;
29788;SDS011;64899;42.660;23.268;2023-11-19T06:22:50;4.43;;;3.30;;
29788;SDS011;64899;42.660;23.268;2023-11-19T06:25:15;4.13;;;3.40;;
29788;SDS011;64899;42.660;23.268;2023-11-19T06:27:41;5.75;;;3.70;;
29788;SDS011;64899;42.660;23.268;2023-11-19T06:30:07;4.07;;;3.42;;
29788;SDS011;64899;42.660;23.268;2023-11-19T06:32:33;4.20;;;3.50;;
29788;SDS011;64899;42.660;23.268;2023-11-19T06:34:59;7.05;;;3.50;;
29788;SDS011;64899;42.660;23.268;2023-11-19T06:37:24;4.93;;;3.80;;
29788;SDS011;64899;42.660;23.268;2023-11-19T06:39:49;4.80;;;3.42;;
29788;SDS011;64899;42.660;23.268;2023-11-19T06:42:15;4.47;;;3.63;;
29788;SDS011;64899;42.660;23.268;2023-11-19T06:44:40;6.55;;;3.65;;
29788;SDS011;64899;42.660;23.268;2023-11-19T06:47:06;4.90;;;3.80;;
29788;SDS011;64899;42.660;23.268;2023-11-19T06:49:31;4.28;;;3.45;;
29788;SDS011;64899;42.660;23.268;2023-11-19T06:51:57;4.57;;;3.55;;
29788;SDS011;64899;42.660;23.268;2023-11-19T06:54:22;4.72;;;3.50;;
29788;SDS011;64899;42.660;23.268;2023-11-19T06:56:48;4.05;;;3.47;;
29788;SDS011;64899;42.660;23.268;2023-11-19T06:59:13;4.40;;;3.85;;
29788;SDS011;64899;42.660;23.268;2023-11-19T07:01:39;6.20;;;3.35;;
29788;SDS011;64899;42.660;23.268;2023-11-19T07:04:04;5.15;;;3.97;;
29788;SDS011;64899;42.660;23.268;2023-11-19T07:06:34;5.35;;;3.83;;
29788;SDS011;64899;42.660;23.268;2023-11-19T07:09:00;4.60;;;3.67;;
29788;SDS011;64899;42.660;23.268;2023-11-19T07:11:34;4.40;;;3.80;;
29788;SDS011;64899;42.660;23.268;2023-11-19T07:14:10;5.18;;;3.65;;
29788;SDS011;64899;42.660;23.268;2023-11-19T07:16:36;5.68;;;3.80;;
29788;SDS011;64899;42.660;23.268;2023-11-19T07:19:05;6.30;;;3.97;;
29788;SDS011;64899;42.660;23.268;2023-11-19T07:21:31;4.95;;;4.18;;
29788;SDS011;64899;42.660;23.268;2023-11-19T07:23:57;4.97;;;3.78;;
29788;SDS011;64899;42.660;23.268;2023-11-19T07:26:23;4.57;;;3.95;;
29788;SDS011;64899;42.660;23.268;2023-11-19T07:28:51;5.32;;;4.00;;
29788;SDS011;64899;42.660;23.268;2023-11-19T07:31:17;5.57;;;4.28;;
29788;SDS011;64899;42.660;23.268;2023-11-19T07:33:45;7.07;;;4.32;;
29788;SDS011;64899;42.660;23.268;2023-11-19T07:36:12;5.03;;;4.03;;
29788;SDS011;64899;42.660;23.268;2023-11-19T07:38:38;4.03;;;3.40;;
29788;SDS011;64899;42.660;23.268;2023-11-19T07:41:04;5.28;;;3.85;;
29788;SDS011;64899;42.660;23.268;2023-11-19T07:43:30;6.32;;;4.13;;
29788;SDS011;64899;42.660;23.268;2023-11-19T07:45:55;6.47;;;4.20;;
29788;SDS011;64899;42.660;23.268;2023-11-19T07:48:21;8.00;;;4.53;;
29788;SDS011;64899;42.660;23.268;2023-11-19T07:50:49;7.13;;;4.10;;
29788;SDS011;64899;42.660;23.268;2023-11-19T07:53:18;5.20;;;4.10;;
29788;SDS011;64899;42.660;23.268;2023-11-19T07:55:44;4.85;;;4.07;;
29788;SDS011;64899;42.660;23.268;2023-11-19T07:58:10;4.82;;;3.58;;
29788;SDS011;64899;42.660;23.268;2023-11-19T08:00:36;4.53;;;3.67;;
29788;SDS011;64899;42.660;23.268;2023-11-19T08:03:02;6.45;;;4.38;;
29788;SDS011;64899;42.660;23.268;2023-11-19T08:05:28;5.00;;;4.10;;
29788;SDS011;64899;42.660;23.268;2023-11-19T08:07:53;4.72;;;3.88;;
29788;SDS011;64899;42.660;23.268;2023-11-19T08:10:19;5.18;;;4.20;;
29788;SDS011;64899;42.660;23.268;2023-11-19T08:12:44;6.13;;;4.75;;
29788;SDS011;64899;42.660;23.268;2023-11-19T08:15:10;7.70;;;4.72;;
29788;SDS011;64899;42.660;23.268;2023-11-19T08:17:35;5.20;;;4.38;;
29788;SDS011;64899;42.660;23.268;2023-11-19T08:20:01;6.00;;;4.57;;
29788;SDS011;64899;42.660;23.268;2023-11-19T08:22:27;6.82;;;4.85;;
29788;SDS011;64899;42.660;23.268;2023-11-19T08:24:52;7.57;;;4.60;;
29788;SDS011;64899;42.660;23.268;2023-11-19T08:27:17;6.05;;;4.82;;
29788;SDS011;64899;42.660;23.268;2023-11-19T08:29:43;7.05;;;4.43;;
29788;SDS011;64899;42.660;23.268;2023-11-19T08:32:08;5.97;;;4.65;;
29788;SDS011;64899;42.660;23.268;2023-11-19T08:34:34;6.18;;;4.25;;
29788;SDS011;64899;42.660;23.268;2023-11-19T08:36:59;5.10;;;4.40;;
29788;SDS011;64899;42.660;23.268;2023-11-19T08:39:25;5.00;;;4.50;;
29788;SDS011;64899;42.660;23.268;2023-11-19T08:41:50;6.32;;;4.78;;
29788;SDS011;64899;42.660;23.268;2023-11-19T08:44:16;6.78;;;4.80;;
29788;SDS011;64899;42.660;23.268;2023-11-19T08:46:51;6.22;;;4.60;;
29788;SDS011;64899;42.660;23.268;2023-11-19T08:49:16;6.80;;;4.40;;
29788;SDS011;64899;42.660;23.268;2023-11-19T08:51:42;5.22;;;4.15;;
29788;SDS011;64899;42.660;23.268;2023-11-19T08:54:07;6.20;;;4.60;;
29788;SDS011;64899;42.660;23.268;2023-11-19T08:56:33;5.05;;;3.92;;
29788;SDS011;64899;42.660;23.268;2023-11-19T08:59:00;5.28;;;4.03;;
29788;SDS011;64899;42.660;23.268;2023-11-19T09:01:25;7.45;;;4.57;;
29788;SDS011;64899;42.660;23.268;2023-11-19T09:03:51;5.85;;;3.97;;
29788;SDS011;64899;42.660;23.268;2023-11-19T09:06:17;5.32;;;4.00;;
29788;SDS011;64899;42.660;23.268;2023-11-19T09:08:42;4.65;;;3.80;;
29788;SDS011;64899;42.660;23.268;2023-11-19T09:11:08;6.15;;;4.28;;
29788;SDS011;64899;42.660;23.268;2023-11-19T09:13:34;4.15;;;3.75;;
29788;SDS011;64899;42.660;23.268;2023-11-19T09:15:59;4.22;;;3.83;;
29788;SDS011;64899;42.660;23.268;2023-11-19T09:18:28;5.88;;;4.45;;
29788;SDS011;64899;42.660;23.268;2023-11-19T09:20:57;4.93;;;3.85;;
29788;SDS011;64899;42.660;23.268;2023-11-19T09:23:22;6.22;;;4.30;;
29788;SDS011;64899;42.660;23.268;2023-11-19T09:25:50;7.53;;;5.30;;
29788;SDS011;64899;42.660;23.268;2023-11-19T09:28:15;5.90;;;4.90;;
29788;SDS011;64899;42.660;23.268;2023-11-19T09:30:40;6.00;;;4.80;;
29788;SDS011;64899;42.660;23.268;2023-11-19T09:33:06;8.88;;;5.55;;
29788;SDS011;64899;42.660;23.268;2023-11-19T09:35:31;5.10;;;3.97;;
29788;SDS011;64899;42.660;23.268;2023-11-19T09:37:57;5.90;;;3.60;;
29788;SDS011;64899;42.660;23.268;2023-11-19T09:40:22;4.85;;;3.38;;
29788;SDS011;64899;42.660;23.268;2023-11-19T09:42:48;7.28;;;3.88;;
29788;SDS011;64899;42.660;23.268;2023-11-19T09:45:14;5.45;;;4.50;;
29788;SDS011;64899;42.660;23.268;2023-11-19T09:47:44;13.40;;;6.57;;
29788;SDS011;64899;42.660;23.268;2023-11-19T09:50:19;5.50;;;3.92;;
29788;SDS011;64899;42.660;23.268;2023-11-19T09:52:46;5.90;;;4.60;;
29788;SDS011;64899;42.660;23.268;2023-11-19T09:55:11;4.55;;;3.83;;
29788;SDS011;64899;42.660;23.268;2023-11-19T09:57:40;5.07;;;3.67;;
29788;SDS011;64899;42.660;23.268;2023-11-19T10:00:07;4.55;;;3.38;;
29788;SDS011;64899;42.660;23.268;2023-11-19T10:02:35;4.60;;;3.65;;
29788;SDS011;64899;42.660;23.268;2023-11-19T10:05:02;4.78;;;3.92;;
29788;SDS011;64899;42.660;23.268;2023-11-19T10:07:31;4.55;;;3.90;;
29788;SDS011;64899;42.660;23.268;2023-11-19T10:10:01;5.50;;;2.92;;
29788;SDS011;64899;42.660;23.268;2023-11-19T10:12:29;4.32;;;3.28;;
29788;SDS011;64899;42.660;23.268;2023-11-19T10:14:58;4.40;;;2.80;;
29788;SDS011;64899;42.660;23.268;2023-11-19T10:17:32;4.75;;;3.38;;
29788;SDS011;64899;42.660;23.268;2023-11-19T10:19:58;3.83;;;3.17;;
29788;SDS011;64899;42.660;23.268;2023-11-19T10:22:24;5.05;;;3.55;;
29788;SDS011;64899;42.660;23.268;2023-11-19T10:24:50;6.53;;;3.67;;
29788;SDS011;64899;42.660;23.268;2023-11-19T10:27:15;4.82;;;3.03;;
29788;SDS011;64899;42.660;23.268;2023-11-19T10:29:43;5.18;;;3.38;;
29788;SDS011;64899;42.660;23.268;2023-11-19T10:32:10;4.45;;;3.30;;
29788;SDS011;64899;42.660;23.268;2023-11-19T10:34:38;3.45;;;2.67;;
29788;SDS011;64899;42.660;23.268;2023-11-19T10:37:04;4.50;;;3.00;;
29788;SDS011;64899;42.660;23.268;2023-11-19T10:39:51;4.28;;;2.92;;
29788;SDS011;64899;42.660;23.268;2023-11-19T10:42:19;6.88;;;3.40;;
29788;SDS011;64899;42.660;23.268;2023-11-19T10:44:44;4.07;;;3.13;;
29788;SDS011;64899;42.660;23.268;2023-11-19T10:47:10;4.22;;;2.95;;
29788;SDS011;64899;42.660;23.268;2023-11-19T10:49:35;4.40;;;2.92;;
29788;SDS011;64899;42.660;23.268;2023-11-19T10:52:01;3.47;;;2.88;;
29788;SDS011;64899;42.660;23.268;2023-11-19T10:54:26;3.08;;;2.30;;
29788;SDS011;64899;42.660;23.268;2023-11-19T10:56:55;2.50;;;2.30;;
29788;SDS011;64899;42.660;23.268;2023-11-19T10:59:24;2.75;;;2.30;;
29788;SDS011;64899;42.660;23.268;2023-11-19T11:01:52;5.72;;;4.13;;
29788;SDS011;64899;42.660;23.268;2023-11-19T11:04:22;3.05;;;2.58;;
29788;SDS011;64899;42.660;23.268;2023-11-19T11:06:49;2.88;;;2.53;;
29788;SDS011;64899;42.660;23.268;2023-11-19T11:09:16;4.00;;;2.97;;
29788;SDS011;64899;42.660;23.268;2023-11-19T11:11:42;2.58;;;2.22;;
29788;SDS011;64899;42.660;23.268;2023-11-19T11:14:12;2.05;;;1.85;;
29788;SDS011;64899;42.660;23.268;2023-11-19T11:16:40;2.17;;;1.98;;
29788;SDS011;64899;42.660;23.268;2023-11-19T11:19:07;2.10;;;1.90;;
29788;SDS011;64899;42.660;23.268;2023-11-19T11:21:34;2.40;;;2.20;;
29788;SDS011;64899;42.660;23.268;2023-11-19T11:29:17;3.00;;;2.00;;
29788;SDS011;64899;42.660;23.268;2023-11-19T11:37:36;2.88;;;1.90;;
29788;SDS011;64899;42.660;23.268;2023-11-19T11:40:04;2.20;;;2.00;;
29788;SDS011;64899;42.660;23.268;2023-11-19T11:42:35;2.35;;;2.13;;
29788;SDS011;64899;42.660;23.268;2023-11-19T11:45:05;3.17;;;2.33;;
29788;SDS011;64899;42.660;23.268;2023-11-19T11:50:15;2.70;;;2.00;;
29788;SDS011;64899;42.660;23.268;2023-11-19T11:57:53;2.78;;;2.30;;
29788;SDS011;64899;42.660;23.268;2023-11-19T12:00:37;3.70;;;2.47;;
29788;SDS011;64899;42.660;23.268;2023-11-19T12:03:04;1.88;;;1.70;;
29788;SDS011;64899;42.660;23.268;2023-11-19T12:05:30;3.38;;;1.83;;
29788;SDS011;64899;42.660;23.268;2023-11-19T12:08:02;2.38;;;2.17;;
29788;SDS011;64899;42.660;23.268;2023-11-19T12:10:31;2.42;;;1.77;;
29788;SDS011;64899;42.660;23.268;2023-11-19T12:13:00;3.78;;;2.00;;
29788;SDS011;64899;42.660;23.268;2023-11-19T12:15:26;2.22;;;1.85;;
29788;SDS011;64899;42.660;23.268;2023-11-19T12:17:53;3.42;;;2.08;;
29788;SDS011;64899;42.660;23.268;2023-11-19T12:20:22;2.20;;;1.92;;
29788;SDS011;64899;42.660;23.268;2023-11-19T12:22:49;4.47;;;2.78;;
29788;SDS011;64899;42.660;23.268;2023-11-19T12:25:14;2.28;;;2.08;;
29788;SDS011;64899;42.660;23.268;2023-11-19T12:27:42;3.47;;;2.65;;
29788;SDS011;64899;42.660;23.268;2023-11-19T12:30:09;3.75;;;2.45;;
29788;SDS011;64899;42.660;23.268;2023-11-19T12:35:08;2.35;;;2.15;;
29788;SDS011;64899;42.660;23.268;2023-11-19T12:37:44;2.60;;;2.30;;
29788;SDS011;64899;42.660;23.268;2023-11-19T12:40:13;2.65;;;2.03;;
29788;SDS011;64899;42.660;23.268;2023-11-19T12:42:48;3.40;;;2.58;;
29788;SDS011;64899;42.660;23.268;2023-11-19T12:45:14;3.50;;;2.33;;
29788;SDS011;64899;42.660;23.268;2023-11-19T12:47:41;2.92;;;2.30;;
29788;SDS011;64899;42.660;23.268;2023-11-19T12:50:07;2.63;;;2.00;;
29788;SDS011;64899;42.660;23.268;2023-11-19T12:52:34;2.67;;;2.20;;
29788;SDS011;64899;42.660;23.268;2023-11-19T12:55:00;3.10;;;2.70;;
29788;SDS011;64899;42.660;23.268;2023-11-19T12:57:41;4.35;;;2.63;;
29788;SDS011;64899;42.660;23.268;2023-11-19T13:00:07;2.50;;;2.30;;
29788;SDS011;64899;42.660;23.268;2023-11-19T13:02:45;3.60;;;2.50;;
29788;SDS011;64899;42.660;23.268;2023-11-19T13:05:31;3.40;;;2.53;;
29788;SDS011;64899;42.660;23.268;2023-11-19T13:08:01;6.53;;;2.50;;
29788;SDS011;64899;42.660;23.268;2023-11-19T13:10:28;6.07;;;2.40;;
29788;SDS011;64899;42.660;23.268;2023-11-19T13:13:07;3.45;;;2.90;;
29788;SDS011;64899;42.660;23.268;2023-11-19T13:15:33;4.13;;;2.78;;
29788;SDS011;64899;42.660;23.268;2023-11-19T13:17:59;4.07;;;2.67;;
29788;SDS011;64899;42.660;23.268;2023-11-19T13:20:25;3.10;;;2.33;;
29788;SDS011;64899;42.660;23.268;2023-11-19T13:22:57;2.72;;;2.03;;
29788;SDS011;64899;42.660;23.268;2023-11-19T13:25:26;2.92;;;2.50;;
29788;SDS011;64899;42.660;23.268;2023-11-19T13:27:53;2.30;;;1.95;;
29788;SDS011;64899;42.660;23.268;2023-11-19T13:30:19;2.15;;;1.90;;
29788;SDS011;64899;42.660;23.268;2023-11-19T13:32:45;1.83;;;1.73;;
29788;SDS011;64899;42.660;23.268;2023-11-19T13:35:11;3.60;;;2.45;;
29788;SDS011;64899;42.660;23.268;2023-11-19T13:37:37;2.70;;;2.15;;
29788;SDS011;64899;42.660;23.268;2023-11-19T13:40:03;4.40;;;2.67;;
29788;SDS011;64899;42.660;23.268;2023-11-19T13:42:29;2.75;;;2.03;;
29788;SDS011;64899;42.660;23.268;2023-11-19T13:44:54;2.65;;;1.85;;
29788;SDS011;64899;42.660;23.268;2023-11-19T13:47:21;2.40;;;2.20;;
29788;SDS011;64899;42.660;23.268;2023-11-19T13:49:46;2.95;;;1.70;;
29788;SDS011;64899;42.660;23.268;2023-11-19T13:52:12;2.33;;;1.92;;
29788;SDS011;64899;42.660;23.268;2023-11-19T13:54:37;2.88;;;1.90;;
29788;SDS011;64899;42.660;23.268;2023-11-19T13:57:03;3.28;;;2.53;;
29788;SDS011;64899;42.660;23.268;2023-11-19T13:59:29;4.30;;;2.95;;
29788;SDS011;64899;42.660;23.268;2023-11-19T14:01:56;2.90;;;2.50;;
29788;SDS011;64899;42.660;23.268;2023-11-19T14:04:21;3.60;;;2.78;;
29788;SDS011;64899;42.660;23.268;2023-11-19T14:06:47;5.40;;;3.15;;
29788;SDS011;64899;42.660;23.268;2023-11-19T14:09:12;4.47;;;3.22;;
29788;SDS011;64899;42.660;23.268;2023-11-19T14:11:38;4.72;;;3.38;;
29788;SDS011;64899;42.660;23.268;2023-11-19T14:14:03;7.15;;;4.32;;
29788;SDS011;64899;42.660;23.268;2023-11-19T14:16:29;5.65;;;3.25;;
29788;SDS011;64899;42.660;23.268;2023-11-19T14:18:54;5.63;;;3.20;;
29788;SDS011;64899;42.660;23.268;2023-11-19T14:21:20;6.57;;;3.83;;
29788;SDS011;64899;42.660;23.268;2023-11-19T14:23:45;5.32;;;3.65;;
29788;SDS011;64899;42.660;23.268;2023-11-19T14:26:11;6.28;;;3.47;;
29788;SDS011;64899;42.660;23.268;2023-11-19T14:28:37;5.10;;;3.05;;
29788;SDS011;64899;42.660;23.268;2023-11-19T14:31:03;4.28;;;3.10;;
29788;SDS011;64899;42.660;23.268;2023-11-19T14:33:29;4.97;;;3.03;;
29788;SDS011;64899;42.660;23.268;2023-11-19T14:35:54;5.47;;;3.45;;
29788;SDS011;64899;42.660;23.268;2023-11-19T14:38:19;4.82;;;3.25;;
29788;SDS011;64899;42.660;23.268;2023-11-19T14:40:45;4.05;;;2.85;;
29788;SDS011;64899;42.660;23.268;2023-11-19T14:43:10;3.47;;;2.50;;
29788;SDS011;64899;42.660;23.268;2023-11-19T14:45:36;2.97;;;2.40;;
29788;SDS011;64899;42.660;23.268;2023-11-19T14:48:01;4.75;;;2.67;;
29788;SDS011;64899;42.660;23.268;2023-11-19T14:50:27;4.40;;;3.25;;
29788;SDS011;64899;42.660;23.268;2023-11-19T14:52:53;5.18;;;3.28;;